createdAt,value
2018-02-08T00:01:15.746Z,0.60
2018-02-08T00:03:44.791Z,0.70
2018-02-08T00:06:13.112Z,0.70
2018-02-08T00:08:42.155Z,0.70
2018-02-08T00:11:10.741Z,0.70
2018-02-08T00:13:39.106Z,0.70
2018-02-08T00:16:07.382Z,0.70
2018-02-08T00:18:35.700Z,0.70
2018-02-08T00:21:03.969Z,0.80
2018-02-08T00:23:32.313Z,0.80
2018-02-08T00:26:00.619Z,0.80
2018-02-08T00:28:28.918Z,0.80
2018-02-08T00:30:57.201Z,0.90
2018-02-08T00:33:25.801Z,0.90
2018-02-08T00:35:54.114Z,0.90
2018-02-08T00:38:22.436Z,0.90
2018-02-08T00:40:50.750Z,0.90
2018-02-08T00:43:19.816Z,0.80
2018-02-08T00:45:48.135Z,0.80
2018-02-08T00:48:16.441Z,0.80
2018-02-08T00:50:45.008Z,0.70
2018-02-08T00:53:13.305Z,0.70
2018-02-08T00:55:41.576Z,0.70
2018-02-08T00:58:09.886Z,0.70
2018-02-08T01:00:38.190Z,0.70
2018-02-08T01:03:07.268Z,0.80
2018-02-08T01:05:35.554Z,0.70
2018-02-08T01:08:04.127Z,0.80
2018-02-08T01:10:32.406Z,0.80
2018-02-08T01:13:00.711Z,0.80
2018-02-08T01:15:29.000Z,0.80
2018-02-08T01:17:57.314Z,0.80
2018-02-08T01:20:25.627Z,0.80
2018-02-08T01:22:53.915Z,0.80
2018-02-08T01:25:22.235Z,0.80
2018-02-08T01:27:50.567Z,0.80
2018-02-08T01:30:18.871Z,0.80
2018-02-08T01:32:48.000Z,0.70
2018-02-08T01:35:16.265Z,0.70
2018-02-08T01:37:44.812Z,0.70
2018-02-08T01:40:13.832Z,0.70
2018-02-08T01:42:42.110Z,0.70
2018-02-08T01:45:10.413Z,0.60
2018-02-08T01:47:38.701Z,0.60
2018-02-08T01:50:07.034Z,0.50
2018-02-08T01:52:35.309Z,0.50
2018-02-08T01:55:03.592Z,0.60
2018-02-08T01:57:31.885Z,0.50
2018-02-08T02:00:00.456Z,0.60
2018-02-08T02:02:28.745Z,0.60
2018-02-08T02:04:57.007Z,0.60
2018-02-08T02:07:25.318Z,0.60
2018-02-08T02:09:53.572Z,0.60
2018-02-08T02:12:21.873Z,0.70
2018-02-08T02:14:50.127Z,0.60
2018-02-08T02:17:18.666Z,0.60
2018-02-08T02:19:47.839Z,0.60
2018-02-08T02:22:16.094Z,0.60
2018-02-08T02:24:45.164Z,0.60
2018-02-08T02:27:13.453Z,0.60
2018-02-08T02:29:42.037Z,0.60
2018-02-08T02:32:10.309Z,0.70
2018-02-08T02:34:38.563Z,0.70
2018-02-08T02:37:07.628Z,0.70
2018-02-08T02:39:35.901Z,0.70
2018-02-08T02:42:04.181Z,0.70
2018-02-08T02:44:32.447Z,0.70
2018-02-08T02:47:00.730Z,0.60
2018-02-08T02:49:28.977Z,0.60
2018-02-08T02:51:57.529Z,0.70
2018-02-08T02:54:26.599Z,0.70
2018-02-08T02:56:54.861Z,0.70
2018-02-08T02:59:23.173Z,0.80
2018-02-08T03:01:51.460Z,0.80
2018-02-08T03:04:20.536Z,0.90
2018-02-08T03:06:48.817Z,0.90
2018-02-08T03:09:17.113Z,0.90
2018-02-08T03:11:45.399Z,0.90
2018-02-08T03:14:14.489Z,1.00
2018-02-08T03:16:43.527Z,1.00
2018-02-08T03:19:11.808Z,1.00
2018-02-08T03:21:40.095Z,1.00
2018-02-08T03:24:08.368Z,1.10
2018-02-08T03:26:36.667Z,1.10
2018-02-08T03:29:04.935Z,1.00
2018-02-08T03:31:33.230Z,1.00
2018-02-08T03:34:01.508Z,1.00
2018-02-08T03:36:29.761Z,1.10
2018-02-08T03:38:58.062Z,1.10
2018-02-08T03:41:26.343Z,1.10
2018-02-08T03:43:54.649Z,1.00
2018-02-08T03:46:23.664Z,1.00
2018-02-08T03:48:52.201Z,1.00
2018-02-08T03:51:20.493Z,1.00
2018-02-08T03:53:49.526Z,1.00
2018-02-08T03:56:17.826Z,1.20
2018-02-08T03:58:46.112Z,1.00
2018-02-08T04:01:14.402Z,1.00
2018-02-08T04:03:42.668Z,1.00
2018-02-08T04:06:10.948Z,1.00
2018-02-08T04:08:39.234Z,1.00
2018-02-08T04:11:07.767Z,0.90
2018-02-08T04:13:36.033Z,0.80
2018-02-08T04:16:04.321Z,0.80
2018-02-08T04:18:32.617Z,0.80
2018-02-08T04:21:00.898Z,0.70
2018-02-08T04:23:29.228Z,0.70
2018-02-08T04:25:57.482Z,0.70
2018-02-08T04:28:25.745Z,0.60
2018-02-08T04:30:54.022Z,0.60
2018-02-08T04:33:22.300Z,0.60
2018-02-08T04:35:50.855Z,0.60
2018-02-08T04:38:30.951Z,0.60
2018-02-08T04:41:11.169Z,0.60
2018-02-08T04:43:51.281Z,0.60
2018-02-08T04:46:31.494Z,0.60
2018-02-08T04:48:59.756Z,0.60
2018-02-08T04:51:28.036Z,0.60
2018-02-08T04:53:56.334Z,0.60
2018-02-08T04:56:24.583Z,0.60
2018-02-08T04:58:52.885Z,0.60
2018-02-08T05:01:21.156Z,0.60
2018-02-08T05:03:49.440Z,0.70
2018-02-08T05:06:17.710Z,0.60
2018-02-08T05:08:46.269Z,0.70
2018-02-08T05:11:14.543Z,0.60
2018-02-08T05:13:42.792Z,0.60
2018-02-08T05:16:11.068Z,0.60
2018-02-08T05:18:39.334Z,0.60
2018-02-08T05:21:07.611Z,0.60
2018-02-08T05:23:35.878Z,0.60
2018-02-08T05:26:04.437Z,0.50
2018-02-08T05:28:32.723Z,0.50
2018-02-08T05:31:01.011Z,0.50
2018-02-08T05:33:29.307Z,0.60
2018-02-08T05:35:57.589Z,0.60
2018-02-08T05:38:26.140Z,0.50
2018-02-08T05:40:54.421Z,0.50
2018-02-08T05:43:22.666Z,0.40
2018-02-08T05:45:50.969Z,0.40
2018-02-08T05:48:19.231Z,0.40
2018-02-08T05:50:47.525Z,0.40
2018-02-08T05:53:17.862Z,0.40
2018-02-08T05:55:46.497Z,0.40
2018-02-08T05:58:14.760Z,0.40
2018-02-08T06:00:43.321Z,0.40
2018-02-08T06:03:11.581Z,0.50
2018-02-08T06:05:39.854Z,0.40
2018-02-08T06:08:08.149Z,0.40
2018-02-08T06:10:36.409Z,0.40
2018-02-08T06:13:04.752Z,0.40
2018-02-08T06:15:33.790Z,0.40
2018-02-08T06:18:02.105Z,0.30
2018-02-08T06:20:30.382Z,0.30
2018-02-08T06:22:58.921Z,0.30
2018-02-08T06:25:27.175Z,0.30
2018-02-08T06:27:55.468Z,0.30
2018-02-08T06:30:23.833Z,0.30
2018-02-08T06:32:52.840Z,0.40
2018-02-08T06:35:21.125Z,0.40
2018-02-08T06:37:49.390Z,0.40
2018-02-08T06:40:17.956Z,0.50
2018-02-08T06:42:46.981Z,0.50
2018-02-08T06:45:16.004Z,0.80
2018-02-08T06:47:44.302Z,0.60
2018-02-08T06:50:12.559Z,0.60
2018-02-08T06:52:40.853Z,0.60
2018-02-08T06:55:09.113Z,0.70
2018-02-08T06:57:39.308Z,0.70
2018-02-08T07:00:07.624Z,0.70
2018-02-08T07:02:35.881Z,0.80
2018-02-08T07:05:04.160Z,0.80
2018-02-08T07:07:32.437Z,0.90
2018-02-08T07:10:00.733Z,0.90
2018-02-08T07:12:29.027Z,1.00
2018-02-08T07:14:57.312Z,1.00
2018-02-08T07:17:25.566Z,1.00
2018-02-08T07:19:53.819Z,1.00
2018-02-08T07:22:22.120Z,1.00
2018-02-08T07:24:50.381Z,1.00
2018-02-08T07:27:18.670Z,1.00
2018-02-08T07:29:46.917Z,1.00
2018-02-08T07:32:15.224Z,1.10
2018-02-08T07:34:43.519Z,1.10
2018-02-08T07:37:11.774Z,1.10
2018-02-08T07:39:40.069Z,1.10
2018-02-08T07:42:08.360Z,1.10
2018-02-08T07:44:36.693Z,1.10
2018-02-08T07:47:05.003Z,1.20
2018-02-08T07:49:33.547Z,1.20
2018-02-08T07:52:01.812Z,1.20
2018-02-08T07:54:30.095Z,1.20
2018-02-08T07:56:58.380Z,1.30
2018-02-08T07:59:26.660Z,1.30
2018-02-08T08:01:54.965Z,1.30
2018-02-08T08:04:23.231Z,1.30
2018-02-08T08:06:51.531Z,1.40
2018-02-08T08:09:19.814Z,1.40
2018-02-08T08:11:48.352Z,1.50
2018-02-08T08:14:16.628Z,1.50
2018-02-08T08:16:44.881Z,1.60
2018-02-08T08:19:13.183Z,1.60
2018-02-08T08:21:42.230Z,1.80
2018-02-08T08:24:11.300Z,1.80
2018-02-08T08:26:39.564Z,1.80
2018-02-08T08:29:08.125Z,1.80
2018-02-08T08:31:36.375Z,1.90
2018-02-08T08:34:05.418Z,2.00
2018-02-08T08:36:33.725Z,2.00
2018-02-08T08:39:02.088Z,2.00
2018-02-08T08:41:31.083Z,2.10
2018-02-08T08:43:59.344Z,2.10
2018-02-08T08:46:27.649Z,2.10
2018-02-08T08:48:55.913Z,2.20
2018-02-08T08:51:24.500Z,2.20
2018-02-08T08:53:52.826Z,2.20
2018-02-08T08:56:21.868Z,2.10
2018-02-08T08:58:50.216Z,2.10
2018-02-08T09:01:19.244Z,2.10
2018-02-08T09:03:47.551Z,2.10
2018-02-08T09:06:15.843Z,2.10
2018-02-08T09:08:44.918Z,2.20
2018-02-08T09:11:13.222Z,2.20
2018-02-08T09:13:42.542Z,2.30
2018-02-08T09:16:10.847Z,2.30
2018-02-08T09:18:39.134Z,2.30
2018-02-08T09:21:07.416Z,2.40
2018-02-08T09:23:35.702Z,2.40
2018-02-08T09:26:03.997Z,2.50
2018-02-08T09:28:32.276Z,2.60
2018-02-08T09:31:00.828Z,2.60
2018-02-08T09:33:29.093Z,2.70
2018-02-08T09:35:57.356Z,2.80
2018-02-08T09:38:25.632Z,2.80
2018-02-08T09:40:53.923Z,2.90
2018-02-08T09:43:22.238Z,2.90
2018-02-08T09:45:50.516Z,3.00
2018-02-08T09:48:19.058Z,3.00
2018-02-08T09:50:47.314Z,3.00
2018-02-08T09:53:15.600Z,3.00
2018-02-08T09:55:43.943Z,3.00
2018-02-08T09:58:13.018Z,3.10
2018-02-08T10:00:42.078Z,3.10
2018-02-08T10:03:10.344Z,3.10
2018-02-08T10:05:39.397Z,3.10
2018-02-08T10:08:07.686Z,3.10
2018-02-08T10:10:36.243Z,3.20
2018-02-08T10:13:04.526Z,3.20
2018-02-08T10:15:32.794Z,3.20
2018-02-08T10:18:01.102Z,3.30
2018-02-08T10:20:29.368Z,3.30
2018-02-08T10:22:57.687Z,3.40
2018-02-08T10:25:25.954Z,3.40
2018-02-08T10:27:54.248Z,3.50
2018-02-08T10:30:22.527Z,3.50
2018-02-08T10:32:50.861Z,3.60
2018-02-08T10:35:19.143Z,3.80
2018-02-08T10:37:47.700Z,3.80
2018-02-08T10:40:16.014Z,3.90
2018-02-08T10:42:45.073Z,3.90
2018-02-08T10:45:13.356Z,3.80
2018-02-08T10:47:41.657Z,3.80
2018-02-08T10:50:09.962Z,3.80
2018-02-08T10:52:38.275Z,3.90
2018-02-08T10:55:06.854Z,3.90
2018-02-08T10:57:35.136Z,3.90
2018-02-08T11:00:03.461Z,4.00
2018-02-08T11:02:32.530Z,4.00
2018-02-08T11:05:00.847Z,4.00
2018-02-08T11:07:29.142Z,4.10
2018-02-08T11:09:57.431Z,4.10
2018-02-08T11:12:26.631Z,4.20
2018-02-08T11:14:55.617Z,4.20
2018-02-08T11:17:24.175Z,4.20
2018-02-08T11:19:52.438Z,4.20
2018-02-08T11:22:20.732Z,4.20
2018-02-08T11:24:49.791Z,4.20
2018-02-08T11:27:18.078Z,4.20
2018-02-08T11:29:46.392Z,4.30
2018-02-08T11:32:15.426Z,4.30
2018-02-08T11:34:43.725Z,4.30
2018-02-08T11:37:11.978Z,4.30
2018-02-08T11:39:40.542Z,4.40
2018-02-08T11:42:08.814Z,4.40
2018-02-08T11:44:37.106Z,4.30
2018-02-08T11:47:05.392Z,4.30
2018-02-08T11:49:33.673Z,4.30
2018-02-08T11:52:02.228Z,4.20
2018-02-08T11:54:31.276Z,4.20
2018-02-08T11:56:59.594Z,4.20
2018-02-08T11:59:27.840Z,4.20
2018-02-08T12:01:56.098Z,4.30
2018-02-08T12:04:24.404Z,4.30
2018-02-08T12:06:52.669Z,4.30
2018-02-08T12:09:20.989Z,4.40
2018-02-08T12:11:50.001Z,4.30
2018-02-08T12:14:18.585Z,4.30
2018-02-08T12:16:46.843Z,4.20
2018-02-08T12:19:15.884Z,4.30
2018-02-08T12:21:44.182Z,4.30
2018-02-08T12:24:12.463Z,4.30
2018-02-08T12:26:40.763Z,4.30
2018-02-08T12:29:09.815Z,4.30
2018-02-08T12:31:38.105Z,4.30
2018-02-08T12:34:06.379Z,4.40
2018-02-08T12:36:34.930Z,4.40
2018-02-08T12:39:03.251Z,4.40
2018-02-08T12:41:31.512Z,4.40
2018-02-08T12:43:59.815Z,4.40
2018-02-08T12:46:28.091Z,4.40
2018-02-08T12:48:56.377Z,4.30
2018-02-08T12:51:24.647Z,4.30
2018-02-08T12:53:53.212Z,4.20
2018-02-08T12:56:21.477Z,4.20
2018-02-08T12:58:49.811Z,4.20
2018-02-08T13:01:18.082Z,4.20
2018-02-08T13:03:46.371Z,4.20
2018-02-08T13:06:15.463Z,4.10
2018-02-08T13:08:44.495Z,4.10
2018-02-08T13:11:12.807Z,4.10
2018-02-08T13:13:41.070Z,4.10
2018-02-08T13:16:09.695Z,4.00
2018-02-08T13:18:38.761Z,3.90
2018-02-08T13:21:07.559Z,3.90
2018-02-08T13:23:35.849Z,3.80
2018-02-08T13:26:04.133Z,3.70
2018-02-08T13:28:32.489Z,3.60
2018-02-08T13:31:00.754Z,3.60
2018-02-08T13:33:29.059Z,3.60
2018-02-08T13:35:57.334Z,3.60
2018-02-08T13:38:25.899Z,3.50
2018-02-08T13:40:54.180Z,3.50
2018-02-08T13:43:22.472Z,3.50
2018-02-08T13:45:51.087Z,3.50
2018-02-08T13:48:21.541Z,3.50
2018-02-08T13:50:52.231Z,3.50
2018-02-08T14:06:43.890Z,3.70
2018-02-08T14:09:12.942Z,3.70
2018-02-08T14:11:41.569Z,3.70
2018-02-08T14:14:09.857Z,3.80
2018-02-08T14:16:38.202Z,3.70
2018-02-08T14:19:07.272Z,3.70
2018-02-08T14:21:36.359Z,3.70
2018-02-08T14:24:04.672Z,3.70
2018-02-08T14:26:33.759Z,3.80
2018-02-08T14:29:03.150Z,3.80
2018-02-08T14:31:31.443Z,3.90
2018-02-08T14:33:59.822Z,3.90
2018-02-08T14:36:28.153Z,3.90
2018-02-08T14:38:56.450Z,3.90
2018-02-08T14:41:24.903Z,3.90
2018-02-08T14:43:53.222Z,3.90
2018-02-08T14:46:21.821Z,3.90
2018-02-08T14:48:50.885Z,3.90
2018-02-08T14:51:19.165Z,3.90
2018-02-08T14:53:47.464Z,3.80
2018-02-08T14:56:15.772Z,3.80
2018-02-08T14:58:44.845Z,3.80
2018-02-08T15:01:13.134Z,3.80
2018-02-08T15:03:42.220Z,3.80
2018-02-08T15:06:10.496Z,3.80
2018-02-08T15:08:39.889Z,3.70
2018-02-08T15:11:08.249Z,3.70
2018-02-08T15:13:36.570Z,3.70
2018-02-08T15:16:05.692Z,3.70
2018-02-08T15:18:34.016Z,3.70
2018-02-08T15:21:02.597Z,3.70
2018-02-08T15:23:30.919Z,3.60
2018-02-08T15:25:59.938Z,3.50
2018-02-08T15:28:28.261Z,3.50
2018-02-08T15:30:56.520Z,3.50
2018-02-08T15:33:24.845Z,3.50
2018-02-08T15:35:53.917Z,3.40
2018-02-08T15:38:22.248Z,3.40
2018-02-08T15:40:50.516Z,3.50
2018-02-08T15:43:19.103Z,3.50
2018-02-08T15:45:48.125Z,3.50
2018-02-08T15:48:16.507Z,3.50
2018-02-08T15:50:44.805Z,3.50
2018-02-08T15:53:13.179Z,3.50
2018-02-08T15:55:41.503Z,3.50
2018-02-08T15:58:09.858Z,3.40
2018-02-08T16:00:38.175Z,3.40
2018-02-08T16:03:06.485Z,3.30
2018-02-08T16:05:35.057Z,3.20
2018-02-08T16:08:03.384Z,3.10
2018-02-08T16:10:31.679Z,3.00
2018-02-08T16:13:00.038Z,2.90
2018-02-08T16:15:28.287Z,2.90
2018-02-08T16:17:56.899Z,2.90
2018-02-08T16:20:25.229Z,2.90
2018-02-08T16:22:53.553Z,2.80
2018-02-08T16:25:21.923Z,2.90
2018-02-08T16:27:50.200Z,2.90
2018-02-08T16:30:18.521Z,2.90
2018-02-08T16:32:46.797Z,2.90
2018-02-08T16:35:15.118Z,2.90
2018-02-08T16:37:43.484Z,2.90
2018-02-08T16:40:12.103Z,2.90
2018-02-08T16:42:40.372Z,2.90
2018-02-08T16:45:08.659Z,2.90
2018-02-08T16:47:36.991Z,2.90
2018-02-08T16:50:05.283Z,2.90
2018-02-08T16:52:34.375Z,2.90
2018-02-08T16:55:02.720Z,2.90
2018-02-08T16:57:31.055Z,2.80
2018-02-08T16:59:59.347Z,2.80
2018-02-08T17:02:27.954Z,2.80
2018-02-08T17:04:57.087Z,2.70
2018-02-08T17:07:25.453Z,2.70
2018-02-08T17:09:53.771Z,2.80
2018-02-08T17:12:22.069Z,2.70
2018-02-08T17:14:50.465Z,2.70
2018-02-08T17:17:19.540Z,2.80
2018-02-08T17:19:48.181Z,2.80
2018-02-08T17:22:16.486Z,2.80
2018-02-08T17:24:44.798Z,2.80
2018-02-08T17:27:13.139Z,2.80
2018-02-08T17:29:42.133Z,2.80
2018-02-08T17:32:10.567Z,2.80
2018-02-08T17:34:39.667Z,2.80
2018-02-08T17:37:08.793Z,2.80
2018-02-08T17:39:37.875Z,2.80
2018-02-08T17:42:06.487Z,2.80
2018-02-08T17:44:34.782Z,2.90
2018-02-08T17:47:03.103Z,2.90
2018-02-08T17:49:32.330Z,2.90
2018-02-08T17:52:00.728Z,2.90
2018-02-08T17:54:29.045Z,3.00
2018-02-08T18:00:09.602Z,2.90
2018-02-08T18:02:39.142Z,2.90
2018-02-08T18:05:08.072Z,2.90
2018-02-08T18:07:37.359Z,2.90
2018-02-08T18:10:06.023Z,2.90
2018-02-08T18:12:35.085Z,2.90
2018-02-08T18:15:03.420Z,2.90
2018-02-08T18:17:31.735Z,2.90
2018-02-08T18:20:00.073Z,2.90
2018-02-08T18:22:29.178Z,2.80
2018-02-08T18:24:57.468Z,2.80
2018-02-08T18:27:26.101Z,2.80
2018-02-08T18:29:54.433Z,2.70
2018-02-08T18:32:22.805Z,2.70
2018-02-08T18:34:51.136Z,2.70
2018-02-08T18:37:19.513Z,2.60
2018-02-08T18:39:47.868Z,2.60
2018-02-08T18:42:16.213Z,2.60
2018-02-08T18:44:45.048Z,2.50
2018-02-08T18:47:13.384Z,2.50
2018-02-08T18:49:41.730Z,2.40
2018-02-08T18:52:11.650Z,2.40
2018-02-08T18:54:41.153Z,2.30
2018-02-08T18:57:09.543Z,2.30
2018-02-08T18:59:37.805Z,2.30
2018-02-08T19:02:06.131Z,2.20
2018-02-08T19:04:41.904Z,2.20
2018-02-08T19:07:10.562Z,2.10
2018-02-08T19:09:38.942Z,2.10
2018-02-08T19:12:09.397Z,2.10
2018-02-08T19:14:37.850Z,2.10
2018-02-08T19:17:06.917Z,2.00
2018-02-08T19:19:35.282Z,2.00
2018-02-08T19:22:03.600Z,1.90
2018-02-08T19:24:32.431Z,1.90
2018-02-08T19:27:00.722Z,1.90
2018-02-08T19:29:30.446Z,1.90
2018-02-08T19:31:58.833Z,1.90
2018-02-08T19:34:32.988Z,1.90
2018-02-08T19:37:04.651Z,1.90
2018-02-08T19:39:33.767Z,1.90
2018-02-08T19:42:02.350Z,1.90
2018-02-08T19:44:30.701Z,1.90
2018-02-08T19:46:59.075Z,1.90
2018-02-08T19:49:28.202Z,2.00
2018-02-08T19:51:58.947Z,1.90
2018-02-08T19:54:28.578Z,2.00
2018-02-08T19:56:57.684Z,2.10
2018-02-08T19:59:26.021Z,2.10
2018-02-08T20:01:54.313Z,2.10
2018-02-08T20:04:24.240Z,2.10
2018-02-08T20:06:53.303Z,2.20
2018-02-08T20:09:21.710Z,2.20
2018-02-08T20:11:50.027Z,2.20
2018-02-08T20:14:24.979Z,2.20
2018-02-08T20:16:54.075Z,2.20
2018-02-08T20:19:23.558Z,2.20
2018-02-08T20:42:25.005Z,2.30
2018-02-08T20:44:53.753Z,2.30
2018-02-08T20:47:22.862Z,2.30
2018-02-08T20:50:11.951Z,2.20
2018-02-08T20:52:40.405Z,2.20
2018-02-08T20:55:09.775Z,2.20
2018-02-08T20:57:38.091Z,2.20
2018-02-08T21:00:07.157Z,2.20
2018-02-08T21:02:35.523Z,2.20
2018-02-08T21:05:03.853Z,2.20
2018-02-08T21:07:32.504Z,2.20
2018-02-08T21:10:00.991Z,2.20
2018-02-08T21:12:29.275Z,2.20
2018-02-08T21:14:58.380Z,2.10
2018-02-08T21:17:27.541Z,2.10
2018-02-08T21:19:56.672Z,2.10
2018-02-08T21:22:24.977Z,2.10
2018-02-08T21:24:53.311Z,2.10
2018-02-08T21:27:21.623Z,2.00
2018-02-08T21:29:50.913Z,2.00
2018-02-08T21:32:20.001Z,1.90
2018-02-08T21:34:48.596Z,1.90
2018-02-08T21:37:16.940Z,1.90
2018-02-08T21:39:45.222Z,1.80
2018-02-08T21:42:13.514Z,1.80
2018-02-08T21:44:41.887Z,1.70
2018-02-08T21:47:10.206Z,1.70
2018-02-08T21:49:39.918Z,1.60
2018-02-08T21:52:08.565Z,1.60
2018-02-08T21:54:36.968Z,1.50
2018-02-08T21:57:05.374Z,1.50
2018-02-08T21:59:33.739Z,1.40
2018-02-08T22:02:02.943Z,1.30
2018-02-08T22:04:31.262Z,1.30
2018-02-08T22:07:00.325Z,1.20
2018-02-08T22:09:29.738Z,1.20
2018-02-08T22:11:58.002Z,1.20
2018-02-08T22:14:26.354Z,1.10
2018-02-08T22:16:54.639Z,1.10
2018-02-08T22:19:25.021Z,1.00
2018-02-08T22:21:53.420Z,0.90
2018-02-08T22:24:22.584Z,0.90
2018-02-08T22:26:51.214Z,0.80
2018-02-08T22:29:19.522Z,0.70
2018-02-08T22:31:48.506Z,0.60
2018-02-08T22:34:16.854Z,0.60
2018-02-08T22:36:45.239Z,0.50
2018-02-08T22:39:13.541Z,0.40
2018-02-08T22:41:42.141Z,0.40
2018-02-08T22:44:12.352Z,0.30
2018-02-08T22:46:41.419Z,0.30
2018-02-08T22:49:10.016Z,0.30
2018-02-08T22:51:38.885Z,0.20
2018-02-08T22:54:07.134Z,0.20
2018-02-08T22:56:35.757Z,0.20
2018-02-08T22:59:04.187Z,0.10
2018-02-08T23:01:32.466Z,0.10
2018-02-08T23:04:02.338Z,0.00
2018-02-08T23:06:30.631Z,0.00
2018-02-08T23:08:59.665Z,-0.10
2018-02-08T23:11:28.390Z,-0.10
2018-02-08T23:13:56.682Z,-0.10
2018-02-08T23:16:24.990Z,-0.10
2018-02-08T23:18:53.293Z,-0.20
2018-02-08T23:21:21.565Z,-0.20
2018-02-08T23:23:49.866Z,-0.20
2018-02-08T23:26:18.148Z,-0.30
2018-02-08T23:28:46.714Z,-0.30
2018-02-08T23:31:15.516Z,-0.30
2018-02-08T23:33:44.664Z,-0.40
2018-02-08T23:36:13.733Z,-0.40
2018-02-08T23:38:42.006Z,-0.40
2018-02-08T23:41:11.882Z,-0.40
2018-02-08T23:43:40.475Z,-0.40
2018-02-08T23:46:08.778Z,-0.40
2018-02-08T23:48:37.076Z,-0.40
2018-02-08T23:51:06.014Z,-0.40
2018-02-08T23:53:34.375Z,-0.40
2018-02-08T23:56:02.704Z,-0.40
2018-02-08T23:58:31.009Z,-0.40
